createdAt,value
2023-02-02T00:02:04.826Z,1.33
2023-02-02T00:04:33.352Z,2.00
2023-02-02T00:07:01.456Z,1.50
2023-02-02T00:09:30.195Z,1.57
2023-02-02T00:11:57.919Z,1.60
2023-02-02T00:14:25.215Z,1.80
2023-02-02T00:16:53.906Z,1.70
2023-02-02T00:19:24.639Z,1.50
2023-02-02T00:21:51.746Z,1.50
2023-02-02T00:24:18.726Z,1.50
2023-02-02T00:26:46.973Z,1.47
2023-02-02T00:29:16.403Z,1.60
2023-02-02T00:31:43.457Z,1.50
2023-02-02T00:34:13.032Z,1.80
2023-02-02T00:36:40.214Z,1.83
2023-02-02T00:39:07.720Z,1.80
2023-02-02T00:41:34.543Z,1.83
2023-02-02T00:44:20.085Z,1.67
2023-02-02T00:46:47.347Z,1.73
2023-02-02T00:49:15.496Z,1.53
2023-02-02T00:51:42.337Z,1.57
2023-02-02T00:54:09.364Z,1.50
2023-02-02T00:56:36.203Z,1.83
2023-02-02T00:59:03.007Z,2.13
2023-02-02T01:01:30.018Z,1.43
2023-02-02T01:03:56.889Z,1.63
2023-02-02T01:06:25.363Z,1.47
2023-02-02T01:08:52.215Z,1.80
2023-02-02T01:11:19.226Z,1.77
2023-02-02T01:13:46.067Z,1.53
2023-02-02T01:16:13.219Z,1.63
2023-02-02T01:18:40.349Z,1.90
2023-02-02T01:21:09.861Z,1.80
2023-02-02T01:23:39.094Z,1.90
2023-02-02T01:26:07.742Z,1.60
2023-02-02T01:28:35.210Z,1.93
2023-02-02T01:31:07.169Z,2.40
2023-02-02T01:33:34.040Z,2.60
2023-02-02T01:36:04.744Z,2.60
2023-02-02T01:38:32.286Z,1.87
2023-02-02T01:41:01.051Z,1.93
2023-02-02T01:43:30.063Z,1.73
2023-02-02T01:46:00.473Z,2.03
2023-02-02T01:48:30.600Z,1.87
2023-02-02T01:51:00.869Z,2.17
2023-02-02T01:53:28.545Z,2.10
2023-02-02T01:55:55.950Z,1.67
2023-02-02T01:58:27.254Z,2.13
2023-02-02T02:00:54.523Z,1.90
2023-02-02T02:03:25.022Z,1.73
2023-02-02T02:05:55.091Z,2.07
2023-02-02T02:08:26.197Z,2.20
2023-02-02T02:10:53.448Z,1.87
2023-02-02T02:13:22.715Z,2.40
2023-02-02T02:16:22.547Z,1.80
2023-02-02T02:18:58.477Z,1.80
2023-02-02T02:21:54.681Z,2.20
2023-02-02T02:25:18.783Z,2.00
2023-02-02T02:28:27.338Z,1.87
2023-02-02T02:31:23.489Z,1.70
2023-02-02T02:34:01.310Z,2.27
2023-02-02T02:36:40.798Z,1.80
2023-02-02T02:39:16.751Z,1.90
2023-02-02T02:41:49.414Z,2.27
2023-02-02T02:44:18.439Z,1.90
2023-02-02T02:46:47.028Z,2.17
2023-02-02T02:49:15.324Z,1.87
2023-02-02T02:51:45.643Z,1.83
2023-02-02T02:54:15.185Z,2.57
2023-02-02T02:57:03.249Z,2.30
2023-02-02T02:59:39.991Z,2.50
2023-02-02T03:02:30.081Z,1.97
2023-02-02T03:05:07.997Z,2.93
2023-02-02T03:07:41.460Z,2.20
2023-02-02T03:10:11.898Z,2.40
2023-02-02T03:12:44.640Z,2.40
2023-02-02T03:15:12.484Z,1.80
2023-02-02T03:17:39.926Z,1.70
2023-02-02T03:20:09.510Z,2.07
2023-02-02T03:22:36.456Z,2.33
2023-02-02T03:25:03.727Z,2.10
2023-02-02T03:27:30.921Z,1.40
2023-02-02T03:29:58.535Z,2.23
2023-02-02T03:32:25.753Z,2.40
2023-02-02T03:34:52.618Z,1.93
2023-02-02T03:37:20.817Z,1.90
2023-02-02T03:39:47.660Z,1.90
2023-02-02T03:42:14.526Z,1.70
2023-02-02T03:44:41.360Z,1.73
2023-02-02T03:47:08.398Z,1.73
2023-02-02T03:49:35.352Z,1.83
2023-02-02T03:52:04.129Z,1.73
2023-02-02T03:54:32.384Z,1.70
2023-02-02T03:56:59.243Z,1.60
2023-02-02T03:59:26.192Z,1.67
2023-02-02T04:01:53.103Z,1.93
2023-02-02T04:04:20.055Z,1.67
2023-02-02T04:06:47.055Z,1.70
2023-02-02T04:09:13.886Z,1.37
2023-02-02T04:11:42.139Z,1.57
2023-02-02T04:14:10.049Z,1.77
2023-02-02T04:16:37.797Z,1.90
2023-02-02T04:19:04.727Z,2.13
2023-02-02T04:21:31.599Z,1.73
2023-02-02T04:23:58.462Z,1.67
2023-02-02T04:26:28.455Z,1.50
2023-02-02T04:28:56.734Z,2.13
2023-02-02T04:31:24.051Z,1.80
2023-02-02T04:33:50.973Z,1.40
2023-02-02T04:36:17.793Z,1.80
2023-02-02T04:38:44.661Z,1.80
2023-02-02T04:41:14.609Z,1.80
2023-02-02T04:43:41.635Z,1.73
2023-02-02T04:46:09.891Z,1.53
2023-02-02T04:48:37.133Z,2.40
2023-02-02T04:51:06.430Z,1.60
2023-02-02T04:53:33.333Z,1.73
2023-02-02T04:56:05.933Z,1.63
2023-02-02T04:58:32.827Z,2.10
2023-02-02T05:00:59.611Z,1.70
2023-02-02T05:03:27.747Z,1.60
2023-02-02T05:06:01.609Z,1.70
2023-02-02T05:08:28.833Z,1.23
2023-02-02T05:10:55.716Z,1.67
2023-02-02T05:13:22.616Z,1.70
2023-02-02T05:15:49.510Z,1.67
2023-02-02T05:18:16.373Z,1.30
2023-02-02T05:20:44.568Z,1.53
2023-02-02T05:23:11.354Z,1.83
2023-02-02T05:25:38.183Z,1.37
2023-02-02T05:28:05.200Z,1.47
2023-02-02T05:30:33.561Z,1.30
2023-02-02T05:33:00.529Z,1.30
2023-02-02T05:35:27.616Z,1.13
2023-02-02T05:37:57.886Z,1.30
2023-02-02T05:40:25.907Z,1.30
2023-02-02T05:42:52.704Z,1.40
2023-02-02T05:45:19.528Z,1.40
2023-02-02T05:47:46.362Z,1.40
2023-02-02T05:50:13.349Z,1.53
2023-02-02T05:52:42.545Z,1.20
2023-02-02T05:55:11.186Z,1.10
2023-02-02T05:57:37.986Z,1.40
2023-02-02T06:00:05.901Z,1.23
2023-02-02T06:02:32.776Z,1.40
2023-02-02T06:05:00.325Z,0.90
2023-02-02T06:07:27.208Z,1.47
2023-02-02T06:09:54.050Z,1.40
2023-02-02T06:12:22.296Z,1.43
2023-02-02T06:14:49.104Z,1.40
2023-02-02T06:17:15.942Z,1.30
2023-02-02T06:19:42.756Z,2.70
2023-02-02T06:22:09.675Z,1.40
2023-02-02T06:24:36.453Z,1.47
2023-02-02T06:27:03.326Z,1.60
2023-02-02T06:29:31.503Z,1.53
2023-02-02T06:31:58.422Z,1.73
2023-02-02T06:34:25.415Z,2.03
2023-02-02T06:36:52.263Z,1.50
2023-02-02T06:39:19.236Z,1.57
2023-02-02T06:41:46.651Z,1.37
2023-02-02T06:44:14.789Z,1.30
2023-02-02T06:46:43.159Z,1.70
2023-02-02T06:49:09.946Z,1.50
2023-02-02T06:51:36.881Z,1.87
2023-02-02T06:54:03.987Z,1.60
2023-02-02T06:56:30.963Z,5.47
2023-02-02T06:58:57.739Z,1.90
2023-02-02T07:01:24.694Z,1.83
2023-02-02T07:03:53.708Z,1.50
2023-02-02T07:06:23.669Z,1.80
2023-02-02T07:09:01.959Z,1.43
2023-02-02T07:11:29.860Z,1.80
2023-02-02T07:13:56.752Z,1.87
2023-02-02T07:16:23.758Z,1.97
2023-02-02T07:18:52.046Z,2.30
2023-02-02T07:21:20.896Z,2.53
2023-02-02T07:23:47.859Z,2.27
2023-02-02T07:26:15.719Z,1.90
2023-02-02T07:28:43.176Z,1.97
2023-02-02T07:31:15.122Z,1.87
2023-02-02T07:33:42.566Z,1.70
2023-02-02T07:36:11.199Z,1.77
2023-02-02T07:38:38.039Z,2.00
2023-02-02T07:41:05.209Z,1.97
2023-02-02T07:43:32.022Z,1.80
2023-02-02T07:46:02.151Z,2.03
2023-02-02T07:48:29.900Z,1.50
2023-02-02T07:50:59.912Z,2.00
2023-02-02T07:53:28.665Z,1.83
2023-02-02T07:56:08.568Z,1.73
2023-02-02T07:58:35.547Z,2.20
2023-02-02T08:01:02.931Z,1.70
2023-02-02T08:03:29.904Z,1.63
2023-02-02T08:05:57.404Z,1.47
2023-02-02T08:08:24.477Z,1.47
2023-02-02T08:10:54.159Z,1.60
2023-02-02T08:13:21.298Z,1.60
2023-02-02T08:15:48.276Z,1.80
2023-02-02T08:18:15.396Z,1.77
2023-02-02T08:20:42.448Z,1.50
2023-02-02T08:23:15.587Z,1.70
2023-02-02T08:25:42.964Z,1.53
2023-02-02T08:28:11.789Z,1.37
2023-02-02T08:30:38.698Z,1.70
2023-02-02T08:33:05.703Z,1.50
2023-02-02T08:35:32.658Z,1.83
2023-02-02T08:38:02.928Z,1.43
2023-02-02T08:40:29.961Z,1.73
2023-02-02T08:42:56.971Z,1.53
2023-02-02T08:46:04.383Z,1.53
2023-02-02T08:48:12.999Z,1.50
2023-02-02T08:50:40.148Z,1.10
2023-02-02T08:53:07.025Z,1.50
2023-02-02T08:55:33.989Z,1.17
2023-02-02T08:58:00.997Z,1.10
2023-02-02T09:00:29.461Z,1.20
2023-02-02T09:02:56.771Z,1.50
2023-02-02T09:05:24.253Z,1.40
2023-02-02T09:07:51.681Z,1.33
2023-02-02T09:10:19.468Z,1.17
2023-02-02T09:12:48.427Z,1.20
2023-02-02T09:15:15.743Z,1.00
2023-02-02T09:17:45.143Z,1.13
2023-02-02T09:20:13.372Z,1.23
2023-02-02T09:22:40.773Z,1.30
2023-02-02T09:25:08.166Z,1.20
2023-02-02T09:27:38.599Z,1.20
2023-02-02T09:30:07.890Z,1.17
2023-02-02T09:32:35.317Z,1.17
2023-02-02T09:35:04.643Z,1.30
2023-02-02T09:37:34.648Z,1.00
2023-02-02T09:40:01.962Z,1.37
2023-02-02T09:42:51.182Z,1.40
2023-02-02T09:45:23.984Z,1.43
2023-02-02T09:47:55.399Z,1.37
2023-02-02T09:50:39.565Z,1.17
2023-02-02T09:53:15.276Z,1.27
2023-02-02T09:55:45.229Z,0.87
2023-02-02T09:58:18.306Z,0.97
2023-02-02T10:00:51.190Z,1.45
2023-02-02T10:03:22.383Z,1.20
2023-02-02T10:05:56.392Z,1.03
2023-02-02T10:08:34.901Z,1.43
2023-02-02T10:11:09.402Z,1.10
2023-02-02T10:13:43.507Z,1.73
2023-02-02T10:16:17.344Z,1.17
2023-02-02T10:18:48.771Z,1.10
2023-02-02T10:21:25.750Z,0.83
2023-02-02T10:23:54.641Z,1.10
2023-02-02T10:26:23.425Z,0.97
2023-02-02T10:29:05.580Z,1.33
2023-02-02T10:31:44.065Z,1.00
2023-02-02T10:34:17.532Z,0.70
2023-02-02T10:37:02.823Z,0.93
2023-02-02T10:39:41.809Z,0.77
2023-02-02T10:42:20.582Z,1.00
2023-02-02T10:44:50.992Z,1.00
2023-02-02T10:47:25.893Z,0.90
2023-02-02T10:50:02.240Z,0.70
2023-02-02T10:52:33.446Z,0.83
2023-02-02T10:55:07.308Z,0.60
2023-02-02T10:57:46.722Z,0.80
2023-02-02T11:00:24.025Z,1.00
2023-02-02T11:02:53.004Z,0.70
2023-02-02T11:05:43.756Z,0.70
2023-02-02T11:08:18.269Z,0.83
2023-02-02T11:10:46.942Z,0.80
2023-02-02T11:13:25.218Z,0.70
2023-02-02T11:16:12.197Z,0.90
2023-02-02T11:18:39.075Z,0.80
2023-02-02T11:21:19.530Z,0.77
2023-02-02T11:23:54.692Z,1.03
2023-02-02T11:26:23.056Z,0.50
2023-02-02T11:28:52.520Z,0.50
2023-02-02T11:31:34.632Z,0.90
2023-02-02T11:34:20.190Z,0.83
2023-02-02T11:37:03.290Z,0.73
2023-02-02T11:39:31.586Z,1.00
2023-02-02T11:42:05.179Z,0.80
2023-02-02T11:44:34.071Z,0.77
2023-02-02T11:47:02.387Z,0.90
2023-02-02T11:49:30.227Z,0.67
2023-02-02T11:52:02.061Z,0.90
2023-02-02T11:54:33.110Z,0.87
2023-02-02T11:57:01.626Z,0.70
2023-02-02T11:59:31.251Z,0.90
2023-02-02T12:02:25.474Z,0.93
2023-02-02T12:04:55.336Z,0.83
2023-02-02T12:07:28.027Z,0.90
2023-02-02T12:10:00.849Z,0.90
2023-02-02T12:12:41.206Z,0.70
2023-02-02T12:15:23.816Z,0.70
2023-02-02T12:17:56.496Z,1.37
2023-02-02T12:20:34.873Z,0.83
2023-02-02T12:23:35.038Z,0.90
2023-02-02T12:26:19.901Z,0.80
2023-02-02T12:29:01.038Z,0.50
2023-02-02T12:31:38.841Z,0.90
2023-02-02T12:34:15.994Z,0.67
2023-02-02T12:36:50.315Z,2.50
2023-02-02T12:39:34.440Z,0.70
2023-02-02T12:42:25.051Z,1.60
2023-02-02T12:45:16.092Z,0.83
2023-02-02T12:47:55.015Z,0.77
2023-02-02T12:50:30.359Z,1.00
2023-02-02T12:53:17.116Z,0.80
2023-02-02T12:55:47.933Z,0.83
2023-02-02T12:58:24.851Z,1.07
2023-02-02T13:01:11.256Z,1.03
2023-02-02T13:03:54.403Z,1.10
2023-02-02T13:06:47.269Z,1.00
2023-02-02T13:09:20.341Z,0.80
2023-02-02T13:11:50.936Z,0.60
2023-02-02T13:14:23.581Z,0.87
2023-02-02T13:16:56.085Z,1.00
2023-02-02T13:19:28.672Z,0.87
2023-02-02T13:21:58.355Z,0.77
2023-02-02T13:24:31.088Z,0.97
2023-02-02T13:27:01.108Z,0.80
2023-02-02T13:29:34.880Z,1.00
2023-02-02T13:32:23.571Z,0.80
2023-02-02T13:34:55.199Z,0.80
2023-02-02T13:37:32.181Z,0.70
2023-02-02T13:40:02.867Z,0.87
2023-02-02T13:42:42.124Z,1.00
2023-02-02T13:45:33.717Z,0.87
2023-02-02T13:48:12.660Z,1.00
2023-02-02T13:51:01.127Z,0.70
2023-02-02T13:53:51.778Z,0.80
2023-02-02T13:56:38.297Z,1.13
2023-02-02T13:59:16.836Z,1.07
2023-02-02T14:01:48.593Z,0.90
2023-02-02T14:04:22.694Z,1.00
2023-02-02T14:06:59.213Z,0.70
2023-02-02T14:09:30.263Z,0.90
2023-02-02T14:12:01.425Z,0.73
2023-02-02T14:14:32.982Z,1.20
2023-02-02T14:17:02.941Z,0.73
2023-02-02T14:19:51.216Z,1.00
2023-02-02T14:22:37.878Z,0.90
2023-02-02T14:25:48.003Z,1.10
2023-02-02T14:28:41.646Z,0.87
2023-02-02T14:31:53.265Z,1.33
2023-02-02T14:34:34.190Z,1.10
2023-02-02T14:37:34.783Z,0.90
2023-02-02T14:40:32.237Z,0.70
2023-02-02T14:43:27.788Z,1.17
2023-02-02T14:46:21.847Z,0.60
2023-02-02T14:49:07.700Z,1.07
2023-02-02T14:51:48.303Z,1.10
2023-02-02T14:54:24.387Z,0.80
2023-02-02T14:56:55.594Z,0.93
2023-02-02T14:59:24.718Z,0.90
2023-02-02T15:02:01.041Z,1.10
2023-02-02T15:04:29.293Z,1.13
2023-02-02T15:07:16.703Z,0.87
2023-02-02T15:09:46.349Z,0.90
2023-02-02T15:12:31.558Z,0.73
2023-02-02T15:15:10.549Z,1.13
2023-02-02T15:17:49.017Z,0.73
2023-02-02T15:20:22.547Z,0.83
2023-02-02T15:22:55.611Z,0.80
2023-02-02T15:25:31.121Z,0.90
2023-02-02T15:28:04.386Z,0.97
2023-02-02T15:30:34.625Z,0.93
2023-02-02T15:33:05.381Z,0.80
2023-02-02T15:35:32.831Z,0.90
2023-02-02T15:38:02.516Z,1.07
2023-02-02T15:40:32.324Z,0.80
2023-02-02T15:43:02.108Z,0.70
2023-02-02T15:45:44.532Z,1.00
2023-02-02T15:48:26.784Z,0.93
2023-02-02T15:50:55.451Z,0.70
2023-02-02T15:53:25.617Z,0.70
2023-02-02T15:55:55.762Z,0.70
2023-02-02T15:58:32.780Z,0.70
2023-02-02T16:01:03.416Z,0.60
2023-02-02T16:03:38.603Z,0.70
2023-02-02T16:06:07.538Z,0.70
2023-02-02T16:08:37.875Z,0.77
2023-02-02T16:11:09.736Z,0.70
2023-02-02T16:13:37.346Z,0.80
2023-02-02T16:16:06.850Z,0.70
2023-02-02T16:18:35.437Z,0.80
2023-02-02T16:21:11.351Z,1.03
2023-02-02T16:23:39.219Z,0.60
2023-02-02T16:26:08.129Z,0.80
2023-02-02T16:28:35.904Z,0.80
2023-02-02T16:31:03.438Z,1.00
2023-02-02T16:33:35.808Z,0.60
2023-02-02T16:36:06.090Z,0.93
2023-02-02T16:38:37.630Z,0.90
2023-02-02T16:41:07.876Z,0.70
2023-02-02T16:43:37.980Z,0.80
2023-02-02T16:46:08.832Z,0.83
2023-02-02T16:48:37.124Z,0.73
2023-02-02T16:51:12.065Z,1.07
2023-02-02T16:53:39.367Z,1.00
2023-02-02T16:56:09.049Z,0.97
2023-02-02T16:58:43.979Z,1.00
2023-02-02T17:01:16.009Z,0.93
2023-02-02T17:03:50.859Z,0.80
2023-02-02T17:06:25.375Z,1.13
2023-02-02T17:08:52.312Z,0.90
2023-02-02T17:11:25.343Z,0.70
2023-02-02T17:13:53.500Z,1.00
2023-02-02T17:16:22.582Z,1.03
2023-02-02T17:18:50.412Z,0.67
2023-02-02T17:21:19.689Z,1.30
2023-02-02T17:23:46.916Z,0.83
2023-02-02T17:26:14.284Z,0.90
2023-02-02T17:28:43.054Z,1.10
2023-02-02T17:31:12.301Z,1.13
2023-02-02T17:33:39.736Z,1.60
2023-02-02T17:36:07.553Z,1.17
2023-02-02T17:38:34.505Z,0.90
2023-02-02T17:41:03.163Z,0.97
2023-02-02T17:43:31.279Z,0.90
2023-02-02T17:45:59.844Z,1.10
2023-02-02T17:48:26.684Z,1.47
2023-02-02T17:50:53.764Z,1.00
2023-02-02T17:53:22.166Z,1.17
2023-02-02T17:55:50.098Z,1.10
2023-02-02T17:58:17.942Z,1.10
2023-02-02T18:00:48.742Z,0.90
2023-02-02T18:03:19.972Z,1.10
2023-02-02T18:05:47.028Z,1.10
2023-02-02T18:08:14.394Z,1.17
2023-02-02T18:10:42.005Z,1.30
2023-02-02T18:13:11.020Z,1.20
2023-02-02T18:15:38.841Z,0.90
2023-02-02T18:18:05.763Z,0.77
2023-02-02T18:20:36.287Z,1.10
2023-02-02T18:23:06.677Z,1.63
2023-02-02T18:25:33.690Z,0.97
2023-02-02T18:28:00.626Z,0.83
2023-02-02T18:30:27.809Z,1.43
2023-02-02T18:32:55.003Z,0.93
2023-02-02T18:35:22.019Z,1.20
2023-02-02T18:37:50.257Z,0.80
2023-02-02T18:40:17.642Z,0.90
2023-02-02T18:42:44.580Z,0.93
2023-02-02T18:45:11.705Z,1.00
2023-02-02T18:47:41.097Z,1.10
2023-02-02T18:50:09.322Z,0.70
2023-02-02T18:52:36.219Z,0.93
2023-02-02T18:55:04.802Z,1.13
2023-02-02T18:57:31.865Z,1.00
2023-02-02T18:59:58.749Z,0.93
2023-02-02T19:02:25.930Z,1.37
2023-02-02T19:05:11.615Z,1.13
2023-02-02T19:07:56.612Z,1.50
2023-02-02T19:10:26.858Z,1.20
2023-02-02T19:12:57.250Z,1.27
2023-02-02T19:15:26.600Z,1.87
2023-02-02T19:17:55.343Z,1.23
2023-02-02T19:20:26.181Z,1.30
2023-02-02T19:22:59.683Z,1.63
2023-02-02T19:25:28.834Z,1.40
2023-02-02T19:27:55.958Z,1.23
2023-02-02T19:30:24.110Z,1.20
2023-02-02T19:32:51.439Z,1.07
2023-02-02T19:35:20.801Z,1.60
2023-02-02T19:37:49.084Z,1.50
2023-02-02T19:40:21.410Z,1.53
2023-02-02T19:42:55.465Z,1.37
2023-02-02T19:45:26.821Z,1.20
2023-02-02T19:47:55.807Z,1.40
2023-02-02T19:50:25.058Z,1.60
2023-02-02T19:52:53.840Z,1.70
2023-02-02T19:55:26.212Z,1.17
2023-02-02T19:58:00.586Z,1.60
2023-02-02T20:00:29.686Z,1.60
2023-02-02T20:03:01.973Z,1.23
2023-02-02T20:05:32.577Z,1.17
2023-02-02T20:08:05.562Z,1.50
2023-02-02T20:10:38.385Z,1.53
2023-02-02T20:13:18.782Z,1.17
2023-02-02T20:15:46.444Z,1.50
2023-02-02T20:18:18.388Z,1.53
2023-02-02T20:20:49.328Z,1.40
2023-02-02T20:23:40.830Z,1.80
2023-02-02T20:26:17.124Z,1.47
2023-02-02T20:28:46.146Z,1.67
2023-02-02T20:31:14.954Z,1.53
2023-02-02T20:33:45.818Z,1.60
2023-02-02T20:36:32.656Z,1.13
2023-02-02T20:39:12.088Z,1.70
2023-02-02T20:41:38.962Z,1.53
2023-02-02T20:44:07.219Z,1.40
2023-02-02T20:46:34.116Z,1.73
2023-02-02T20:49:01.097Z,1.30
2023-02-02T20:51:28.049Z,1.40
2023-02-02T20:53:56.566Z,1.73
2023-02-02T20:56:24.139Z,1.80
2023-02-02T20:58:51.631Z,1.77
2023-02-02T21:01:20.014Z,1.43
2023-02-02T21:03:47.072Z,1.67
2023-02-02T21:06:14.215Z,1.87
2023-02-02T21:08:41.210Z,1.90
2023-02-02T21:11:08.153Z,1.67
2023-02-02T21:13:35.144Z,1.60
2023-02-02T21:16:02.109Z,1.73
2023-02-02T21:18:30.424Z,1.83
2023-02-02T21:20:57.335Z,1.87
2023-02-02T21:23:24.272Z,1.53
2023-02-02T21:25:51.259Z,1.90
2023-02-02T21:28:18.276Z,2.30
2023-02-02T21:30:45.926Z,2.00
2023-02-02T21:33:12.927Z,2.30
2023-02-02T21:35:41.120Z,1.40
2023-02-02T21:38:13.353Z,2.20
2023-02-02T21:40:40.953Z,1.47
2023-02-02T21:43:14.610Z,1.67
2023-02-02T21:45:42.718Z,1.70
2023-02-02T21:48:22.893Z,1.97
2023-02-02T21:50:51.192Z,1.73
2023-02-02T21:53:20.347Z,1.30
2023-02-02T21:55:52.323Z,1.93
2023-02-02T21:58:23.089Z,1.60
2023-02-02T22:00:50.401Z,1.00
2023-02-02T22:03:28.263Z,1.67
2023-02-02T22:06:18.093Z,1.27
2023-02-02T22:08:44.958Z,1.40
2023-02-02T22:11:21.803Z,1.47
2023-02-02T22:13:49.075Z,1.37
2023-02-02T22:16:19.203Z,1.77
2023-02-02T22:18:46.516Z,1.40
2023-02-02T22:21:18.798Z,1.47
2023-02-02T22:23:46.871Z,1.70
2023-02-02T22:26:31.469Z,1.47
2023-02-02T22:28:58.376Z,1.80
2023-02-02T22:31:25.354Z,1.50
2023-02-02T22:33:52.394Z,1.60
2023-02-02T22:36:20.669Z,1.80
2023-02-02T22:38:47.588Z,1.67
2023-02-02T22:41:14.536Z,1.93
2023-02-02T22:43:41.678Z,2.33
2023-02-02T22:46:08.721Z,1.73
2023-02-02T22:48:35.715Z,1.63
2023-02-02T22:51:02.916Z,1.93
2023-02-02T22:53:32.575Z,1.70
2023-02-02T22:55:59.497Z,1.60
2023-02-02T22:58:26.473Z,1.57
2023-02-02T23:00:53.437Z,1.87
2023-02-02T23:03:20.625Z,1.80
2023-02-02T23:05:47.567Z,2.13
2023-02-02T23:08:14.411Z,2.07
2023-02-02T23:10:42.606Z,2.00
2023-02-02T23:13:09.615Z,2.00
2023-02-02T23:15:36.735Z,2.20
2023-02-02T23:18:03.937Z,1.50
2023-02-02T23:20:30.970Z,1.80
2023-02-02T23:22:57.791Z,1.70
2023-02-02T23:25:24.796Z,2.10
2023-02-02T23:27:53.304Z,1.70
2023-02-02T23:30:22.140Z,1.80
2023-02-02T23:32:49.069Z,1.93
2023-02-02T23:35:16.268Z,1.70
2023-02-02T23:37:43.143Z,1.70
2023-02-02T23:40:11.734Z,2.13
2023-02-02T23:42:38.652Z,2.10
2023-02-02T23:45:07.961Z,1.60
2023-02-02T23:47:35.519Z,2.17
2023-02-02T23:50:04.294Z,1.90
2023-02-02T23:52:31.710Z,1.90
2023-02-02T23:55:00.109Z,1.87
2023-02-02T23:57:27.484Z,1.90
2023-02-02T23:59:54.429Z,2.23
